Time;durP1;ratioP1;P1;durP2;ratioP2;P2;SDS_P1;SDS_P2;PMS_P1;PMS_P2;Temp;Humidity;BMP_temperature;BMP_pressure;BME280_temperature;BME280_humidity;BME280_pressure;Samples;Min_cycle;Max_cycle;Signal;HPM_P1;HPM_P2
2022/04/24 00:00:43;;;;;;;18.92;5.10;;;;;;;5.22;71.63;99753.84;5058504;28;20045;-57
2022/04/24 00:03:13;;;;;;;24.25;6.30;;;;;;;5.38;71.68;99760.72;5058582;28;20080;-57
2022/04/24 00:05:46;;;;;;;17.23;5.93;;;;;;;5.38;71.31;99769.34;5058551;28;20057;-57
2022/04/24 00:08:16;;;;;;;14.60;5.28;;;;;;;5.40;70.94;99743.44;5058377;28;20053;-57
2022/04/24 00:10:47;;;;;;;20.50;6.03;;;;;;;5.36;71.43;99731.38;5058521;28;20060;-57
2022/04/24 00:13:17;;;;;;;18.60;5.15;;;;;;;5.24;71.64;99736.59;5058176;28;20108;-57
2022/04/24 00:15:48;;;;;;;11.73;5.63;;;;;;;5.31;72.19;99749.50;5058413;28;20090;-57
2022/04/24 00:18:19;;;;;;;19.00;5.25;;;;;;;5.45;72.27;99746.88;5058203;28;20084;-57
2022/04/24 00:20:51;;;;;;;12.70;4.75;;;;;;;5.59;72.22;99741.63;5057876;28;20269;-57
2022/04/24 00:23:21;;;;;;;12.77;4.80;;;;;;;5.68;70.96;99754.56;5058113;28;20217;-57
2022/04/24 00:25:52;;;;;;;18.35;5.90;;;;;;;5.61;71.22;99747.66;5057894;28;20080;-57
2022/04/24 00:28:22;;;;;;;16.10;5.18;;;;;;;5.58;71.61;99748.53;5057861;28;20358;-58
2022/04/24 00:30:53;;;;;;;17.90;5.25;;;;;;;5.69;71.74;99750.22;5057847;28;20049;-57
2022/04/24 00:33:24;;;;;;;14.77;5.32;;;;;;;5.78;71.75;99745.00;5057830;28;20290;-57
2022/04/24 00:35:56;;;;;;;15.70;5.05;;;;;;;5.79;71.74;99741.53;5057966;28;20094;-57
2022/04/24 00:38:26;;;;;;;16.20;4.53;;;;;;;5.89;71.55;99731.97;5050970;28;20147;-57
2022/04/24 00:40:57;;;;;;;20.20;5.10;;;;;;;5.92;71.30;99735.44;5052508;28;20110;-57
2022/04/24 00:43:27;;;;;;;16.90;6.35;;;;;;;5.89;71.62;99725.09;5054192;28;20064;-57
2022/04/24 00:46:13;;;;;;;16.95;4.65;;;;;;;5.78;71.67;99725.13;5054247;28;20101;-57
2022/04/24 00:48:45;;;;;;;11.77;4.65;;;;;;;5.70;71.54;99713.09;5052894;28;20072;-57
2022/04/24 00:51:17;;;;;;;13.35;4.47;;;;;;;5.70;72.10;99713.09;5053247;28;20057;-57
2022/04/24 00:53:48;;;;;;;19.13;4.55;;;;;;;5.92;72.27;99701.72;5053609;28;20053;-57
2022/04/24 00:56:19;;;;;;;15.30;4.78;;;;;;;6.18;71.79;99698.09;5053086;28;20049;-57
2022/04/24 00:58:51;;;;;;;14.25;5.32;;;;;;;6.41;71.02;99672.81;5050211;28;20048;-56
2022/04/24 01:01:22;;;;;;;18.23;5.30;;;;;;;6.50;70.55;99652.88;5053332;28;20057;-57
2022/04/24 01:03:54;;;;;;;16.02;5.85;;;;;;;6.59;70.57;99652.75;5053881;28;20053;-56
2022/04/24 01:06:26;;;;;;;13.55;5.55;;;;;;;6.70;71.03;99632.75;5051443;28;20053;-56
2022/04/24 01:08:57;;;;;;;15.18;6.35;;;;;;;6.77;70.87;99637.00;5052514;28;20060;-56
2022/04/24 01:11:27;;;;;;;14.60;4.60;;;;;;;6.78;70.22;99627.47;5053588;28;20056;-56
2022/04/24 01:13:58;;;;;;;13.23;5.43;;;;;;;6.79;71.03;99614.47;5052840;28;20091;-56
2022/04/24 01:16:29;;;;;;;15.00;5.57;;;;;;;6.84;70.71;99612.69;5052699;28;20048;-57
2022/04/24 01:19:00;;;;;;;17.63;6.25;;;;;;;6.88;70.74;99593.59;5052349;28;20051;-57
2022/04/24 01:21:32;;;;;;;24.65;7.32;;;;;;;7.10;71.08;99593.31;5052475;28;20067;-58
2022/04/24 01:24:06;;;;;;;19.02;6.00;;;;;;;7.23;69.71;99561.09;5052505;28;20053;-57
2022/04/24 01:26:38;;;;;;;18.15;5.70;;;;;;;7.25;70.47;99538.53;5051256;28;20048;-58
2022/04/24 01:29:09;;;;;;;17.33;5.90;;;;;;;7.52;69.97;99549.44;5052132;28;20060;-58
2022/04/24 01:31:40;;;;;;;15.98;5.70;;;;;;;7.48;68.69;99537.34;5052165;28;20053;-58
2022/04/24 01:34:11;;;;;;;14.30;6.05;;;;;;;7.50;69.12;99525.19;5051660;28;20055;-58
2022/04/24 01:36:43;;;;;;;16.65;5.45;;;;;;;7.40;68.02;99539.22;5052032;28;20068;-57
2022/04/24 01:39:15;;;;;;;14.15;5.35;;;;;;;7.23;67.86;99516.91;5052490;28;20213;-57
2022/04/24 01:41:46;;;;;;;11.77;5.45;;;;;;;7.08;68.62;99517.16;5051839;28;20560;-59
2022/04/24 01:44:17;;;;;;;14.63;4.85;;;;;;;7.18;68.49;99513.53;5052072;28;20063;-56
2022/04/24 01:46:48;;;;;;;12.48;5.30;;;;;;;7.17;69.27;99501.44;5051327;28;20048;-57
2022/04/24 01:49:19;;;;;;;13.75;5.78;;;;;;;7.04;68.38;99500.75;5051961;28;20057;-57
2022/04/24 01:51:51;;;;;;;15.35;4.60;;;;;;;6.84;68.83;99488.03;5052084;28;20126;-57
2022/04/24 01:54:22;;;;;;;12.48;5.10;;;;;;;6.63;68.67;99493.50;5052238;28;20032;-57
2022/04/24 01:56:52;;;;;;;11.15;5.10;;;;;;;6.50;69.19;99486.75;5052927;28;20100;-57
2022/04/24 01:59:23;;;;;;;12.55;4.32;;;;;;;6.45;69.15;99499.78;5052444;28;20060;-57
2022/04/24 02:01:54;;;;;;;10.13;4.50;;;;;;;6.60;68.71;99498.75;5051501;28;20760;-57
2022/04/24 02:04:26;;;;;;;10.65;4.82;;;;;;;6.73;69.06;99489.91;5050779;28;20577;-57
2022/04/24 02:06:58;;;;;;;17.98;5.25;;;;;;;6.84;69.13;99479.38;5051657;28;20049;-56
2022/04/24 02:09:28;;;;;;;14.77;5.50;;;;;;;6.79;68.64;99479.47;5052851;28;20063;-56
2022/04/24 02:11:59;;;;;;;13.90;5.28;;;;;;;6.58;68.53;99435.59;5052517;28;20064;-56
2022/04/24 02:14:29;;;;;;;18.00;7.43;;;;;;;6.69;68.46;99464.88;5051442;28;20044;-57
2022/04/24 02:17:00;;;;;;;11.63;5.63;;;;;;;6.63;68.10;99447.63;5052426;28;20052;-57
2022/04/24 02:19:31;;;;;;;14.68;7.38;;;;;;;6.65;68.47;99455.41;5051641;28;20064;-58
2022/04/24 02:22:03;;;;;;;19.88;8.75;;;;;;;6.79;67.94;99453.50;5051003;28;20049;-57
2022/04/24 02:24:33;;;;;;;23.05;8.43;;;;;;;7.07;67.61;99455.69;5052043;28;20045;-57
2022/04/24 02:27:04;;;;;;;12.88;5.45;;;;;;;7.21;66.04;99430.34;5052251;28;20053;-57
2022/04/24 02:29:35;;;;;;;19.38;6.50;;;;;;;7.19;66.27;99394.88;5051192;28;20064;-57
2022/04/24 02:32:06;;;;;;;15.82;5.40;;;;;;;7.11;66.15;99405.38;5049649;28;20052;-57
2022/04/24 02:34:37;;;;;;;15.57;6.43;;;;;;;7.07;65.95;99388.16;5049961;28;20052;-56
2022/04/24 02:37:14;;;;;;;16.45;5.65;;;;;;;7.20;66.21;99388.81;5051291;28;20729;-57
2022/04/24 02:39:45;;;;;;;15.98;4.60;;;;;;;7.25;65.52;99400.81;5051475;28;20080;-58
2022/04/24 02:42:16;;;;;;;17.85;6.65;;;;;;;7.32;64.79;99381.66;5051527;28;20120;-57
2022/04/24 02:44:46;;;;;;;11.25;4.97;;;;;;;7.52;64.32;99372.66;5051226;28;20056;-56
2022/04/24 02:47:17;;;;;;;13.10;4.40;;;;;;;7.62;63.21;99369.00;5050632;28;20076;-56
2022/04/24 02:49:48;;;;;;;17.52;4.45;;;;;;;7.77;62.71;99358.31;5050794;28;20108;-57
2022/04/24 02:52:20;;;;;;;13.07;4.93;;;;;;;7.99;62.46;99347.47;5050906;28;20625;-56
2022/04/24 02:54:51;;;;;;;16.38;6.43;;;;;;;8.14;62.00;99347.16;5054468;28;20047;-56
2022/04/24 02:57:21;;;;;;;13.85;5.05;;;;;;;8.28;62.47;99332.97;5053170;28;20053;-56
2022/04/24 02:59:52;;;;;;;14.23;4.53;;;;;;;8.26;60.24;99329.53;5054703;28;20065;-56
2022/04/24 03:02:22;;;;;;;15.82;4.55;;;;;;;8.12;60.80;99317.69;5053257;28;20596;-57
2022/04/24 03:04:53;;;;;;;13.48;4.63;;;;;;;7.94;61.23;99307.69;5055832;28;20327;-56
2022/04/24 03:07:25;;;;;;;14.48;4.63;;;;;;;7.80;61.10;99297.56;5054542;28;20076;-57
2022/04/24 03:09:56;;;;;;;15.77;4.90;;;;;;;7.90;60.65;99300.84;5053962;28;20059;-56
2022/04/24 03:12:26;;;;;;;15.40;5.75;;;;;;;7.89;59.22;99267.91;5054748;28;20120;-56
2022/04/24 03:14:57;;;;;;;13.05;4.45;;;;;;;8.04;58.73;99282.31;5054489;28;20057;-56
2022/04/24 03:17:27;;;;;;;12.38;4.07;;;;;;;8.06;59.38;99276.19;5055214;28;20112;-56
2022/04/24 03:19:58;;;;;;;13.20;4.38;;;;;;;8.27;58.60;99294.84;5055628;28;20936;-56
2022/04/24 03:22:33;;;;;;;13.52;5.43;;;;;;;8.45;57.96;99283.19;5054450;28;20314;-55
2022/04/24 03:25:05;;;;;;;11.55;4.07;;;;;;;8.39;56.23;99258.13;5054191;28;20061;-57
2022/04/24 03:27:36;;;;;;;11.85;3.80;;;;;;;8.35;56.91;99235.66;5053950;28;20070;-57
2022/04/24 03:30:08;;;;;;;9.52;4.35;;;;;;;8.28;55.83;99236.69;5054683;28;20063;-56
2022/04/24 03:32:39;;;;;;;11.63;4.80;;;;;;;8.26;55.98;99251.47;5053881;28;20070;-57
2022/04/24 03:35:11;;;;;;;10.07;4.38;;;;;;;8.18;54.22;99243.84;5054977;28;20115;-56
2022/04/24 03:37:44;;;;;;;13.40;3.92;;;;;;;8.12;54.60;99250.06;5055524;28;20041;-56
2022/04/24 03:40:15;;;;;;;11.80;4.07;;;;;;;8.11;54.21;99252.69;5054728;28;20041;-57
2022/04/24 03:42:45;;;;;;;16.20;4.55;;;;;;;8.08;54.27;99264.00;5054847;28;20176;-57
2022/04/24 03:45:16;;;;;;;11.07;3.90;;;;;;;8.06;54.84;99260.56;5054883;28;20274;-56
2022/04/24 03:47:47;;;;;;;12.88;4.40;;;;;;;8.02;54.25;99268.50;5054682;28;20061;-57
2022/04/24 03:50:19;;;;;;;11.77;5.55;;;;;;;7.96;54.30;99269.47;5055069;28;20071;-57
2022/04/24 03:52:51;;;;;;;11.57;4.72;;;;;;;7.90;54.34;99259.22;5054970;28;20079;-56
2022/04/24 03:55:21;;;;;;;10.05;5.60;;;;;;;7.74;55.80;99280.34;5054169;28;20381;-57
2022/04/24 03:57:52;;;;;;;11.75;4.63;;;;;;;7.66;56.16;99282.25;5054313;28;20052;-56
2022/04/24 04:00:23;;;;;;;14.73;5.57;;;;;;;7.55;56.13;99281.59;5054842;28;20131;-56
2022/04/24 04:02:53;;;;;;;9.43;4.28;;;;;;;7.41;56.61;99273.22;5054919;28;20926;-56
2022/04/24 04:05:24;;;;;;;9.75;4.38;;;;;;;7.32;57.08;99282.91;5054437;28;20056;-57
2022/04/24 04:07:56;;;;;;;13.52;4.53;;;;;;;7.26;57.32;99288.22;5054522;28;20163;-56
2022/04/24 04:10:27;;;;;;;14.40;4.07;;;;;;;7.21;57.93;99271.84;5054440;28;20098;-57
2022/04/24 04:12:57;;;;;;;10.70;4.28;;;;;;;7.17;57.96;99267.59;5054485;28;20053;-55
2022/04/24 04:15:29;;;;;;;12.05;4.07;;;;;;;7.13;58.23;99264.19;5054524;28;20057;-57
2022/04/24 04:17:59;;;;;;;15.82;4.25;;;;;;;7.06;58.88;99256.53;5054402;28;20335;-57
2022/04/24 04:20:30;;;;;;;12.90;3.42;;;;;;;7.01;57.87;99222.00;5054197;28;20240;-56
2022/04/24 04:23:03;;;;;;;12.43;3.70;;;;;;;6.96;58.50;99236.81;5054186;28;20053;-57
2022/04/24 04:25:33;;;;;;;13.23;3.63;;;;;;;6.88;59.06;99235.22;5054528;28;20227;-57
2022/04/24 04:28:04;;;;;;;13.32;4.03;;;;;;;6.82;59.16;99209.38;5054362;28;20057;-55
2022/04/24 04:30:35;;;;;;;12.10;3.42;;;;;;;6.76;59.06;99235.41;5054139;28;20063;-57
2022/04/24 04:33:05;;;;;;;13.75;4.55;;;;;;;6.70;59.07;99235.53;5053736;28;20056;-56
2022/04/24 04:35:36;;;;;;;12.25;3.45;;;;;;;6.67;59.36;99235.59;5053949;28;20271;-56
2022/04/24 04:38:08;;;;;;;12.30;4.03;;;;;;;6.65;59.68;99245.16;5053841;28;20524;-55
2022/04/24 04:40:38;;;;;;;12.55;4.25;;;;;;;6.61;60.03;99240.88;5053680;28;20067;-56
2022/04/24 04:43:09;;;;;;;14.73;4.55;;;;;;;6.45;61.67;99225.56;5053803;28;20052;-57
2022/04/24 04:45:40;;;;;;;11.05;3.70;;;;;;;6.46;62.69;99232.47;5052785;28;20447;-55
2022/04/24 04:48:10;;;;;;;12.27;3.88;;;;;;;6.42;63.59;99225.63;5053843;28;20243;-56
2022/04/24 04:50:41;;;;;;;14.27;4.22;;;;;;;6.40;64.56;99210.97;5053922;28;20052;-57
2022/04/24 04:53:13;;;;;;;12.40;4.10;;;;;;;6.37;65.09;99211.88;5053900;28;20061;-57
2022/04/24 04:55:44;;;;;;;14.85;3.90;;;;;;;6.37;66.29;99211.88;5053423;28;20033;-56
2022/04/24 04:58:14;;;;;;;14.63;3.83;;;;;;;6.36;67.15;99217.06;5053729;28;20103;-56
2022/04/24 05:00:45;;;;;;;10.52;4.65;;;;;;;6.35;67.03;99218.81;5053438;28;20075;-57
2022/04/24 05:03:15;;;;;;;14.55;4.65;;;;;;;6.32;66.20;99192.94;5053135;28;20120;-56
2022/04/24 05:05:46;;;;;;;10.32;4.05;;;;;;;6.36;66.47;99189.38;5053526;28;20055;-56
2022/04/24 05:08:18;;;;;;;13.80;4.47;;;;;;;6.36;66.60;99183.34;5052906;28;20661;-56
2022/04/24 05:10:49;;;;;;;11.15;3.65;;;;;;;6.37;66.63;99192.84;5053675;28;20311;-57
2022/04/24 05:13:20;;;;;;;8.30;3.90;;;;;;;6.38;66.46;99182.44;5052634;28;20057;-58
2022/04/24 05:15:51;;;;;;;12.05;4.05;;;;;;;6.42;66.08;99178.91;5052613;28;20100;-57
2022/04/24 05:18:21;;;;;;;17.27;4.15;;;;;;;6.47;65.72;99166.72;5053384;28;20518;-57
2022/04/24 05:20:52;;;;;;;19.15;4.68;;;;;;;6.51;65.57;99182.22;5053147;28;20111;-55
2022/04/24 05:23:24;;;;;;;12.32;4.50;;;;;;;6.55;65.70;99178.69;5052932;28;21010;-55
2022/04/24 05:25:55;;;;;;;14.00;4.40;;;;;;;6.57;65.70;99179.53;5052184;28;20052;-58
2022/04/24 05:28:25;;;;;;;13.65;4.47;;;;;;;6.60;66.11;99169.94;5052913;28;20049;-58
2022/04/24 05:30:56;;;;;;;13.57;4.20;;;;;;;6.63;65.65;99161.25;5052927;28;20053;-57
2022/04/24 05:33:26;;;;;;;16.75;6.32;;;;;;;6.68;65.43;99164.63;5052639;28;20339;-56
2022/04/24 05:35:57;;;;;;;11.40;4.60;;;;;;;6.71;65.45;99159.38;5051371;28;20316;-56
2022/04/24 05:38:32;;;;;;;23.05;6.40;;;;;;;6.77;65.13;99163.59;5052862;28;20053;-56
2022/04/24 05:41:03;;;;;;;17.75;5.82;;;;;;;6.83;64.65;99164.31;5052846;28;20053;-57
2022/04/24 05:43:33;;;;;;;18.15;6.00;;;;;;;6.87;64.74;99159.94;5053009;28;20052;-56
2022/04/24 05:46:04;;;;;;;16.98;5.78;;;;;;;6.89;64.81;99153.84;5052846;28;20132;-56
2022/04/24 05:48:34;;;;;;;15.88;4.80;;;;;;;6.91;64.85;99152.06;5052871;28;20057;-56
2022/04/24 05:51:05;;;;;;;13.15;4.57;;;;;;;6.96;64.02;99153.72;5052739;28;20102;-57
2022/04/24 05:53:37;;;;;;;17.20;5.65;;;;;;;6.99;64.16;99164.03;5052815;28;20060;-56
2022/04/24 05:56:08;;;;;;;17.90;6.57;;;;;;;6.98;64.23;99147.59;5052820;28;20331;-57
2022/04/24 05:58:38;;;;;;;13.00;4.35;;;;;;;6.98;64.31;99141.56;5052645;28;20052;-57
2022/04/24 06:01:09;;;;;;;16.33;5.65;;;;;;;7.00;64.21;99144.97;5052766;28;20040;-57
2022/04/24 06:03:40;;;;;;;16.25;5.05;;;;;;;7.00;64.39;99139.78;5052879;28;20065;-57
2022/04/24 06:06:11;;;;;;;22.02;5.93;;;;;;;7.01;64.12;99136.28;5052590;28;20099;-58
2022/04/24 06:08:43;;;;;;;16.23;5.53;;;;;;;7.01;64.55;99110.31;5052673;28;20049;-58
2022/04/24 06:11:13;;;;;;;16.73;6.07;;;;;;;7.02;64.05;99138.88;5052259;28;20075;-58
2022/04/24 06:13:45;;;;;;;14.15;4.93;;;;;;;7.01;64.36;99120.72;5052695;28;20072;-57
2022/04/24 06:16:15;;;;;;;21.90;5.72;;;;;;;7.03;64.73;99125.00;5052555;28;20099;-57
2022/04/24 06:18:46;;;;;;;15.57;6.10;;;;;;;7.05;64.81;99132.75;5051988;28;20053;-58
2022/04/24 06:21:17;;;;;;;19.90;5.25;;;;;;;7.03;65.17;99129.34;5052401;28;20374;-57
2022/04/24 06:23:49;;;;;;;14.88;5.95;;;;;;;7.07;65.63;99121.44;5052472;28;20278;-58
2022/04/24 06:26:19;;;;;;;17.95;5.40;;;;;;;7.08;65.58;99112.75;5053194;28;20052;-57
2022/04/24 06:28:50;;;;;;;22.88;6.85;;;;;;;7.13;65.30;99104.88;5056670;28;20052;-57
2022/04/24 06:31:20;;;;;;;16.75;5.45;;;;;;;7.15;65.29;99113.50;5056004;28;20331;-57
2022/04/24 06:33:51;;;;;;;19.83;5.07;;;;;;;7.15;65.84;99108.31;5056404;28;20284;-56
2022/04/24 06:36:22;;;;;;;22.42;6.63;;;;;;;7.15;66.02;99116.09;5056306;28;20130;-57
2022/04/24 06:38:54;;;;;;;19.55;5.88;;;;;;;7.16;66.71;99103.97;5056335;28;20059;-57
2022/04/24 06:41:24;;;;;;;18.65;5.85;;;;;;;7.16;66.72;99110.00;5056208;28;20048;-57
2022/04/24 06:43:55;;;;;;;16.58;5.32;;;;;;;7.22;66.66;99109.88;5056135;28;20112;-57
2022/04/24 06:46:26;;;;;;;26.65;8.00;;;;;;;7.23;66.75;99109.00;5056111;28;20060;-57
2022/04/24 06:48:56;;;;;;;23.20;6.40;;;;;;;7.27;67.18;99102.00;5055896;28;20108;-57
2022/04/24 06:51:27;;;;;;;15.82;5.90;;;;;;;7.29;67.39;99095.88;5056281;28;20354;-57
2022/04/24 06:53:59;;;;;;;20.88;6.00;;;;;;;7.32;67.48;99085.41;5056314;28;20122;-57
2022/04/24 06:56:30;;;;;;;21.17;6.80;;;;;;;7.35;67.43;99090.53;5056233;28;20697;-56
2022/04/24 06:59:00;;;;;;;23.45;6.93;;;;;;;7.37;67.96;99087.91;5056022;28;20061;-57
2022/04/24 07:01:30;;;;;;;25.77;5.57;;;;;;;7.42;68.12;99080.03;5055698;28;20041;-57
2022/04/24 07:04:01;;;;;;;24.58;7.10;;;;;;;7.42;68.08;99080.03;5055993;28;20048;-57
2022/04/24 07:06:32;;;;;;;23.00;6.47;;;;;;;7.41;68.69;99080.88;5055839;28;20061;-55
2022/04/24 07:09:04;;;;;;;19.48;6.85;;;;;;;7.42;68.59;99082.63;5055812;28;20068;-56
2022/04/24 07:11:35;;;;;;;20.50;6.22;;;;;;;7.45;69.26;99085.16;5055840;28;20118;-55
2022/04/24 07:14:05;;;;;;;25.95;6.50;;;;;;;7.47;69.13;99075.56;5055887;28;20107;-55
2022/04/24 07:16:36;;;;;;;24.83;6.90;;;;;;;7.49;69.21;99079.00;5055624;28;20619;-56
2022/04/24 07:19:07;;;;;;;19.95;6.63;;;;;;;7.50;69.25;99078.09;5055644;28;20131;-56
2022/04/24 07:21:37;;;;;;;20.70;6.65;;;;;;;7.49;69.28;99081.59;5055614;28;20060;-55
2022/04/24 07:24:10;;;;;;;20.17;7.55;;;;;;;7.49;69.60;99079.84;5055337;28;20148;-56
2022/04/24 07:26:40;;;;;;;21.48;6.95;;;;;;;7.51;69.44;99090.19;5055110;28;20053;-56
2022/04/24 07:29:10;;;;;;;32.03;7.05;;;;;;;7.54;70.03;99084.94;5054868;28;20060;-55
2022/04/24 07:31:41;;;;;;;27.40;7.65;;;;;;;7.59;69.94;99083.09;5055314;28;20052;-57
2022/04/24 07:34:12;;;;;;;22.30;6.85;;;;;;;7.63;69.80;99079.50;5054106;28;20045;-53
2022/04/24 07:36:43;;;;;;;27.17;8.32;;;;;;;7.64;70.10;99075.16;5054848;28;20295;-55
2022/04/24 07:39:15;;;;;;;23.42;7.10;;;;;;;7.65;70.05;99084.69;5054350;28;20052;-55
2022/04/24 07:41:45;;;;;;;22.98;7.50;;;;;;;7.64;70.41;99070.84;5055093;28;20045;-55
2022/04/24 07:44:16;;;;;;;19.33;7.25;;;;;;;7.63;70.42;99069.09;5055223;28;20057;-54
2022/04/24 07:46:47;;;;;;;30.75;9.65;;;;;;;7.64;70.61;99080.34;5055231;28;20365;-54
2022/04/24 07:49:17;;;;;;;24.15;7.50;;;;;;;7.65;70.60;99062.13;5055254;28;20067;-54
2022/04/24 07:51:48;;;;;;;21.85;7.50;;;;;;;7.66;70.79;99058.66;5054731;28;20339;-57
2022/04/24 07:54:20;;;;;;;25.42;7.95;;;;;;;7.70;70.73;99049.88;5055323;28;20041;-56
2022/04/24 07:56:51;;;;;;;30.92;8.25;;;;;;;7.75;70.75;99048.03;5054123;28;20171;-55
2022/04/24 07:59:21;;;;;;;24.90;7.35;;;;;;;7.51;70.77;99001.81;5055203;28;20057;-56
2022/04/24 08:01:52;;;;;;;23.20;7.35;;;;;;;7.77;70.94;99035.84;5055312;28;20052;-54
2022/04/24 08:04:23;;;;;;;30.80;7.82;;;;;;;7.59;71.00;99020.69;5055411;28;20091;-56
2022/04/24 08:06:53;;;;;;;24.90;8.02;;;;;;;7.75;71.20;99048.03;5054960;28;20049;-55
2022/04/24 08:09:25;;;;;;;29.20;9.15;;;;;;;7.73;71.38;99057.59;5054459;28;20344;-55
2022/04/24 08:11:56;;;;;;;28.02;8.63;;;;;;;7.68;71.56;99040.41;5054598;28;20095;-54
2022/04/24 08:14:27;;;;;;;28.40;8.27;;;;;;;7.70;71.51;99034.28;5053255;28;20085;-55
2022/04/24 08:16:57;;;;;;;28.98;8.32;;;;;;;7.70;71.60;99038.63;5054349;28;20053;-56
2022/04/24 08:19:29;;;;;;;31.08;8.10;;;;;;;7.66;71.91;99034.38;5053478;28;20052;-55
2022/04/24 08:21:59;;;;;;;36.17;8.55;;;;;;;7.66;71.63;99037.88;5054104;28;20083;-55
2022/04/24 08:24:32;;;;;;;31.98;9.02;;;;;;;7.66;72.17;99043.06;5053650;28;20051;-56
2022/04/24 08:27:02;;;;;;;34.03;9.18;;;;;;;7.66;72.23;99022.25;5052447;28;20045;-54
2022/04/24 08:29:33;;;;;;;33.50;9.07;;;;;;;7.69;72.46;99024.78;5053561;28;20168;-55
2022/04/24 08:32:04;;;;;;;23.67;8.80;;;;;;;7.72;72.29;99016.91;5054249;28;20053;-55
2022/04/24 08:34:34;;;;;;;30.60;8.93;;;;;;;7.71;72.41;99025.59;5053909;28;20103;-56
2022/04/24 08:37:05;;;;;;;33.85;8.27;;;;;;;7.67;72.68;99023.97;5053371;28;20064;-55
2022/04/24 08:39:37;;;;;;;33.03;8.35;;;;;;;7.66;72.58;99022.25;5054040;28;20383;-56
2022/04/24 08:42:09;;;;;;;28.10;8.32;;;;;;;7.64;72.66;99024.03;5053032;28;20059;-56
2022/04/24 08:44:43;;;;;;;32.10;8.15;;;;;;;7.65;72.85;99036.13;5053466;28;20091;-57
2022/04/24 08:47:21;;;;;;;28.63;7.97;;;;;;;7.65;72.71;99051.75;5053980;28;20067;-55
2022/04/24 08:49:55;;;;;;;27.80;8.60;;;;;;;7.58;72.94;99050.16;5052936;28;20126;-55
2022/04/24 08:52:27;;;;;;;35.35;8.43;;;;;;;7.66;72.83;99069.06;5053480;28;20041;-55
2022/04/24 08:55:02;;;;;;;30.70;8.77;;;;;;;7.47;72.84;99036.59;5053818;28;20053;-56
2022/04/24 08:57:33;;;;;;;37.20;9.13;;;;;;;7.65;73.59;99067.34;5053775;28;20132;-55
2022/04/24 09:00:07;;;;;;;39.00;10.57;;;;;;;7.64;73.51;99070.84;5053593;28;20052;-55
2022/04/24 09:02:51;;;;;;;35.80;9.52;;;;;;;7.64;73.62;99080.34;5053858;28;20060;-56
2022/04/24 09:05:23;;;;;;;30.63;9.32;;;;;;;7.45;73.49;99040.97;5053869;28;20053;-56
2022/04/24 09:07:55;;;;;;;41.42;8.73;;;;;;;7.65;73.67;99082.94;5053828;28;20090;-56
2022/04/24 09:10:54;;;;;;;31.50;8.98;;;;;;;7.62;73.81;99088.22;5053521;28;20041;-57
2022/04/24 09:13:29;;;;;;;32.35;9.15;;;;;;;7.60;73.78;99084.78;5053763;28;20087;-55
2022/04/24 09:16:02;;;;;;;26.48;8.40;;;;;;;7.22;73.79;99047.53;5053517;28;20637;-55
2022/04/24 09:18:40;;;;;;;45.28;9.20;;;;;;;7.55;73.75;99102.25;5052316;28;20291;-56
2022/04/24 09:21:13;;;;;;;31.75;9.25;;;;;;;7.60;73.62;99113.38;5053208;28;20381;-56
2022/04/24 09:23:44;;;;;;;33.25;8.88;;;;;;;7.60;73.62;99115.97;5052914;28;20076;-55
2022/04/24 09:26:18;;;;;;;32.53;9.52;;;;;;;7.59;73.34;99119.50;5052856;28;20052;-56
2022/04/24 09:29:13;;;;;;;32.92;9.07;;;;;;;7.56;73.66;99119.53;5052560;28;20052;-56
2022/04/24 09:31:48;;;;;;;31.15;9.13;;;;;;;7.56;73.44;99137.72;5053017;28;20059;-57
2022/04/24 09:34:19;;;;;;;31.45;8.48;;;;;;;7.55;73.71;99133.44;5053003;28;20052;-55
2022/04/24 09:37:03;;;;;;;35.67;8.85;;;;;;;7.50;73.71;99135.28;5053190;28;20379;-55
2022/04/24 09:39:35;;;;;;;33.92;8.80;;;;;;;7.55;73.35;99149.03;5053094;28;20061;-55
2022/04/24 09:42:09;;;;;;;31.17;8.55;;;;;;;7.59;73.12;99165.41;5052988;28;20082;-56
2022/04/24 09:44:42;;;;;;;32.78;8.35;;;;;;;7.59;72.92;99166.28;5053188;28;20078;-56
2022/04/24 09:47:33;;;;;;;32.00;9.35;;;;;;;7.56;72.94;99175.00;5053148;28;20357;-55
2022/04/24 09:50:09;;;;;;;31.88;8.15;;;;;;;7.57;72.87;99179.31;5052800;28;20112;-56
2022/04/24 09:52:45;;;;;;;33.45;8.98;;;;;;;7.56;72.85;99176.72;5052956;28;20080;-55
2022/04/24 09:55:17;;;;;;;36.17;9.77;;;;;;;7.58;72.78;99182.75;5052665;28;20049;-55
2022/04/24 09:57:50;;;;;;;27.95;8.50;;;;;;;7.59;73.00;99181.88;5053022;28;20055;-57
2022/04/24 10:00:21;;;;;;;32.92;8.65;;;;;;;7.56;72.76;99189.72;5052719;28;20379;-56
2022/04/24 10:02:52;;;;;;;29.30;8.77;;;;;;;7.54;72.75;99200.16;5055757;28;20053;-55
2022/04/24 10:05:28;;;;;;;32.33;8.90;;;;;;;7.52;72.67;99201.09;5057296;28;20053;-54
2022/04/24 10:07:59;;;;;;;33.42;9.02;;;;;;;7.51;72.52;99207.16;5056768;28;20080;-57
2022/04/24 10:10:29;;;;;;;36.05;8.70;;;;;;;7.54;72.33;99204.53;5056898;28;20258;-56
2022/04/24 10:13:06;;;;;;;35.20;9.23;;;;;;;7.55;71.82;99214.00;5056752;28;20073;-56
2022/04/24 10:15:40;;;;;;;34.45;8.63;;;;;;;7.57;71.84;99205.28;5056779;28;20091;-55
2022/04/24 10:18:38;;;;;;;40.85;9.88;;;;;;;7.52;71.57;99195.88;5056639;28;20119;-55
2022/04/24 10:21:32;;;;;;;34.60;8.75;;;;;;;7.55;71.33;99214.00;5054286;28;20052;-55
2022/04/24 10:24:10;;;;;;;37.08;9.10;;;;;;;7.50;71.36;99213.25;5055889;28;20068;-55
2022/04/24 10:26:41;;;;;;;29.25;8.88;;;;;;;7.42;71.36;99205.63;5054494;28;20060;-56
2022/04/24 10:29:14;;;;;;;40.22;11.75;;;;;;;7.33;71.61;99217.03;5056413;28;20064;-55
2022/04/24 10:31:46;;;;;;;27.58;8.38;;;;;;;7.23;72.07;99212.91;5056375;28;20120;-55
2022/04/24 10:34:18;;;;;;;24.33;9.27;;;;;;;7.16;71.81;99219.09;5056198;28;20224;-56
2022/04/24 10:36:59;;;;;;;34.40;9.73;;;;;;;7.03;72.39;99225.44;5054907;28;20095;-56
2022/04/24 10:39:33;;;;;;;28.85;9.60;;;;;;;7.02;72.41;99231.53;5054350;28;20103;-55
2022/04/24 10:42:12;;;;;;;31.92;8.65;;;;;;;6.90;72.28;99233.44;5055481;28;20126;-54
2022/04/24 10:44:52;;;;;;;;;;;;;;;6.91;71.82;99235.19;5055454;28;20053;-55
2022/04/24 10:47:23;;;;;;;33.85;8.52;;;;;;;6.89;71.90;99236.94;5053859;28;19978;-55
2022/04/24 10:50:07;;;;;;;32.05;8.85;;;;;;;6.85;71.68;99256.03;5055782;28;20123;-55
2022/04/24 10:52:42;;;;;;;35.28;9.55;;;;;;;6.77;72.00;99254.47;5054565;28;20049;-55
2022/04/24 10:55:16;;;;;;;32.00;10.25;;;;;;;6.69;72.00;99249.41;5055403;28;20052;-55
2022/04/24 10:57:48;;;;;;;33.10;8.73;;;;;;;6.55;72.44;99264.34;5056355;28;20448;-57
2022/04/24 11:00:24;;;;;;;30.17;9.35;;;;;;;6.40;72.73;99274.09;5056116;28;20351;-54
2022/04/24 11:02:54;;;;;;;35.05;8.40;;;;;;;6.23;72.89;99260.50;5054067;28;20956;-55
2022/04/24 11:05:26;;;;;;;31.85;9.40;;;;;;;6.00;73.13;99269.47;5051804;28;20121;-57
2022/04/24 11:08:03;;;;;;;44.95;20.55;;;;;;;5.74;73.29;99261.13;5051271;28;20060;-57
2022/04/24 11:10:41;;;;;;;51.67;23.88;;;;;;;5.63;73.68;99288.06;5055779;28;20550;-55
2022/04/24 11:13:18;;;;;;;49.30;21.38;;;;;;;5.36;74.21;99288.38;5054735;28;20081;-55
2022/04/24 11:15:53;;;;;;;43.55;16.33;;;;;;;5.24;74.86;99296.25;5055594;28;20056;-55
2022/04/24 11:18:25;;;;;;;25.95;9.98;;;;;;;5.05;75.09;99280.94;5055662;28;20099;-55
2022/04/24 11:20:58;;;;;;;25.35;9.77;;;;;;;4.88;76.05;99308.69;5055986;28;20426;-55
2022/04/24 11:23:29;;;;;;;40.03;10.43;;;;;;;4.82;76.28;99295.78;5054642;28;20075;-56
2022/04/24 11:26:02;;;;;;;26.60;9.48;;;;;;;4.75;76.62;99292.41;5054538;28;20378;-57
2022/04/24 11:28:37;;;;;;;30.13;9.38;;;;;;;4.72;77.22;99282.94;5055469;28;20052;-56
2022/04/24 11:31:17;;;;;;;31.45;8.80;;;;;;;4.66;77.50;99293.34;5055218;28;20053;-55
2022/04/24 11:33:58;;;;;;;35.55;9.13;;;;;;;4.50;77.66;99268.47;5055321;28;20141;-55
2022/04/24 11:36:32;;;;;;;31.92;9.57;;;;;;;4.71;77.96;99291.56;5053062;28;20115;-55
2022/04/24 11:39:05;;;;;;;41.88;10.75;;;;;;;4.68;77.89;99296.78;5053441;28;20106;-55
2022/04/24 11:41:35;;;;;;;29.13;8.93;;;;;;;4.67;77.62;99310.59;5051236;28;20071;-55
2022/04/24 11:50:13;;;;;;;32.42;8.23;;;;;;;4.60;77.50;99298.56;5052423;28;20053;-55
2022/04/24 11:50:16;;;;;;;31.23;10.27;;;;;;;4.59;78.00;99283.91;5051602;28;20068;-55
2022/04/24 11:53:07;;;;;;;36.20;9.15;;;;;;;4.57;78.06;99283.06;5053565;28;20037;-54
2022/04/24 11:58:25;;;;;;;34.67;9.50;;;;;;;4.36;77.85;99303.91;5054843;28;20099;-56
2022/04/24 12:00:56;;;;;;;35.17;9.07;;;;;;;4.22;78.14;99317.81;5054495;28;20067;-54
2022/04/24 12:03:30;;;;;;;36.22;11.10;;;;;;;3.99;78.13;99322.22;5051265;28;20056;-54